Terminal Aerodrome Forecast
Issued by NWS

Home | Current Version | Previous Version | Text Only | Print | Product List | Glossary On
Versions: 1 2 3 4 5 6 7 8 9 10 11 12 13 14 15 16 17 18
000
FTUS43 KDVN 251459 AAA
TAFCID
TAF AMD
KCID 251459Z 2515/2612 14010KT P6SM VCSH SCT020 BKN040
      TEMPO 2515/2517 BKN015
     FM252000 17012G20KT P6SM -SHRA VCTS BKN050CB
     FM260100 15006KT 6SM BR BKN035=

USA.gov is the U.S. government's official web portal to all federal, state and local government web resources and services.